Norma, Tennessee
Current Conditions -  °F | °C
As of 2:53 AM on Friday 28 Nov 2014 (Local Time) from KOQT Reporting Station
Broken Clouds Broken Clouds  
Wind Chill: 26°   Ceiling: 3700
Heat Index: 31°   Visibility: 10mi
Dew Point: 21°   Wind: 5mph
Humidity: 67%   Direction: 280°W
Pressure: 30.42"   Gusts: NA
Location:  36.3452°N, 84.4205°W
Report Text: KOQT 280753Z AUTO 28004KT 10SM BKN037 M01/M06 A3042 RMK AO2 SLP315 T10061061
Loading
Personal Weather Stations






























Interactive Weather Map New forecast layout! Learn more

10-Day Weather Forecast

Advertisements
Track Severe Weather on mobile